Time,TemperatureF,DewpointF,PressureIn,WindDirection,WindDirectionDegrees,WindSpeedMPH,WindSpeedGustMPH,Humidity,HourlyPrecipIn,Conditions,Clouds,dailyrainin,SoftwareType,DateUTC
2013-01-31 00:00:00,44.8,44.8,30.48,SE,144,0.0,0.0,100,0.00,,,0.00,Wunderground v.1.15,2013-01-31 08:00:00,
2013-01-31 00:10:00,44.7,44.7,30.48,SSE,161,0.0,0.0,100,0.00,,,0.00,Wunderground v.1.15,2013-01-31 08:10:00,
2013-01-31 00:15:00,44.7,44.7,30.47,SSE,151,0.0,0.0,100,0.00,,,0.00,Wunderground v.1.15,2013-01-31 08:15:00,
2013-01-31 00:25:00,44.4,44.4,30.47,SSE,151,0.0,0.0,100,0.00,,,0.00,Wunderground v.1.15,2013-01-31 08:25:00,
2013-01-31 00:30:00,44.3,44.3,30.47,SSE,151,0.0,0.0,100,0.00,,,0.00,Wunderground v.1.15,2013-01-31 08:30:00,
2013-01-31 00:35:00,44.0,44.0,30.47,SSE,151,0.0,0.0,100,0.00,,,0.00,Wunderground v.1.15,2013-01-31 08:35:00,
2013-01-31 00:40:00,43.9,43.9,30.47,SSE,151,0.0,0.0,100,0.00,,,0.00,Wunderground v.1.15,2013-01-31 08:40:00,
2013-01-31 00:50:00,43.5,43.5,30.47,SSE,151,0.0,0.0,100,0.00,,,0.00,Wunderground v.1.15,2013-01-31 08:50:00,
2013-01-31 00:55:00,43.4,43.4,30.47,SSE,151,0.0,0.0,100,0.00,,,0.00,Wunderground v.1.15,2013-01-31 08:55:00,
2013-01-31 01:00:00,43.3,43.3,30.47,SSE,151,0.0,0.0,100,0.00,,,0.00,Wunderground v.1.15,2013-01-31 09:00:00,
2013-01-31 01:05:00,43.3,43.3,30.47,SSE,151,0.0,0.0,100,0.00,,,0.00,Wunderground v.1.15,2013-01-31 09:05:00,
2013-01-31 01:15:00,43.3,43.3,30.47,SSE,151,0.0,0.0,100,0.00,,,0.00,Wunderground v.1.15,2013-01-31 09:15:00,
2013-01-31 01:20:00,43.4,43.4,30.47,SSE,151,0.0,0.0,100,0.00,,,0.00,Wunderground v.1.15,2013-01-31 09:20:00,
2013-01-31 01:25:00,43.4,43.4,30.47,SSE,151,0.0,0.0,100,0.00,,,0.00,Wunderground v.1.15,2013-01-31 09:25:00,
2013-01-31 01:30:00,43.4,43.4,30.46,SSE,151,0.0,0.0,100,0.00,,,0.00,Wunderground v.1.15,2013-01-31 09:30:00,
2013-01-31 01:35:00,43.4,43.4,30.47,SSE,151,0.0,0.0,100,0.00,,,0.00,Wunderground v.1.15,2013-01-31 09:35:00,
2013-01-31 01:40:00,43.3,43.3,30.46,SSE,151,0.0,0.0,100,0.00,,,0.00,Wunderground v.1.15,2013-01-31 09:40:00,
2013-01-31 01:45:00,43.3,43.3,30.46,SSE,151,0.0,0.0,100,0.00,,,0.00,Wunderground v.1.15,2013-01-31 09:45:00,
2013-01-31 01:55:00,43.3,43.3,30.46,SSE,151,0.0,0.0,100,0.00,,,0.00,Wunderground v.1.15,2013-01-31 09:55:00,
2013-01-31 02:00:00,43.3,43.3,30.46,SSE,151,0.0,0.0,100,0.00,,,0.00,Wunderground v.1.15,2013-01-31 10:00:00,
2013-01-31 02:05:00,43.3,43.3,30.46,SSE,151,0.0,0.0,100,0.00,,,0.00,Wunderground v.1.15,2013-01-31 10:05:00,
2013-01-31 02:10:00,43.3,43.3,30.46,SSE,151,0.0,0.0,100,0.00,,,0.00,Wunderground v.1.15,2013-01-31 10:10:00,
2013-01-31 02:15:00,43.3,43.3,30.46,SSE,151,0.0,0.0,100,0.00,,,0.00,Wunderground v.1.15,2013-01-31 10:15:00,
2013-01-31 02:20:00,43.3,43.3,30.46,SSE,151,0.0,0.0,100,0.00,,,0.00,Wunderground v.1.15,2013-01-31 10:20:00,
2013-01-31 02:30:00,43.4,43.4,30.46,SSE,151,0.0,0.0,100,0.00,,,0.00,Wunderground v.1.15,2013-01-31 10:30:00,
2013-01-31 02:35:00,43.5,43.5,30.47,SSE,151,0.0,0.0,100,0.00,,,0.00,Wunderground v.1.15,2013-01-31 10:35:00,
2013-01-31 02:40:00,43.5,43.5,30.47,SSE,151,0.0,0.0,100,0.00,,,0.00,Wunderground v.1.15,2013-01-31 10:40:00,
2013-01-31 02:45:00,43.5,43.5,30.46,SSE,151,0.0,0.0,100,0.00,,,0.00,Wunderground v.1.15,2013-01-31 10:45:00,
2013-01-31 02:50:00,43.5,43.5,30.47,SSE,151,0.0,0.0,100,0.00,,,0.00,Wunderground v.1.15,2013-01-31 10:50:00,
2013-01-31 02:55:00,43.6,43.6,30.46,SSE,151,0.0,0.0,100,0.00,,,0.00,Wunderground v.1.15,2013-01-31 10:55:00,
2013-01-31 03:05:00,43.6,43.6,30.46,SSE,151,0.0,0.0,100,0.00,,,0.00,Wunderground v.1.15,2013-01-31 11:05:00,
2013-01-31 03:10:00,43.6,43.6,30.45,SSE,151,0.0,0.0,100,0.00,,,0.00,Wunderground v.1.15,2013-01-31 11:10:00,
2013-01-31 03:15:00,43.6,43.6,30.45,SSE,151,0.0,0.0,100,0.00,,,0.00,Wunderground v.1.15,2013-01-31 11:15:00,
2013-01-31 03:20:00,43.6,43.6,30.45,SSE,151,0.0,0.0,100,0.00,,,0.00,Wunderground v.1.15,2013-01-31 11:20:00,
2013-01-31 03:25:00,43.7,43.7,30.44,SSE,151,0.0,0.0,100,0.00,,,0.00,Wunderground v.1.15,2013-01-31 11:25:00,
2013-01-31 03:30:00,43.7,43.7,30.44,SSE,151,0.0,0.0,100,0.00,,,0.00,Wunderground v.1.15,2013-01-31 11:30:00,
2013-01-31 03:40:00,43.5,43.5,30.44,SSE,151,0.0,0.0,100,0.00,,,0.00,Wunderground v.1.15,2013-01-31 11:40:00,
2013-01-31 03:45:00,43.4,43.4,30.44,SSE,151,0.0,0.0,100,0.00,,,0.00,Wunderground v.1.15,2013-01-31 11:45:00,
2013-01-31 03:50:00,43.3,43.3,30.44,SSE,151,0.0,0.0,100,0.00,,,0.00,Wunderground v.1.15,2013-01-31 11:50:00,
2013-01-31 03:55:00,43.1,43.1,30.44,SSE,151,0.0,0.0,100,0.00,,,0.00,Wunderground v.1.15,2013-01-31 11:55:00,
2013-01-31 04:00:00,42.8,42.8,30.44,SSE,151,0.0,0.0,100,0.00,,,0.00,Wunderground v.1.15,2013-01-31 12:00:00,
2013-01-31 04:05:00,42.6,42.6,30.44,SSE,151,0.0,0.0,100,0.00,,,0.00,Wunderground v.1.15,2013-01-31 12:05:00,
2013-01-31 04:15:00,42.1,42.1,30.44,SSE,151,0.0,0.0,100,0.00,,,0.00,Wunderground v.1.15,2013-01-31 12:15:00,
2013-01-31 04:20:00,41.9,41.9,30.44,SSE,151,0.0,0.0,100,0.00,,,0.00,Wunderground v.1.15,2013-01-31 12:20:00,
2013-01-31 04:25:00,41.7,41.7,30.44,SSE,151,0.0,0.0,100,0.00,,,0.00,Wunderground v.1.15,2013-01-31 12:25:00,
2013-01-31 04:30:00,41.5,41.5,30.44,SSE,151,0.0,0.0,100,0.00,,,0.00,Wunderground v.1.15,2013-01-31 12:30:00,
2013-01-31 04:35:00,41.4,41.4,30.44,SSE,151,0.0,0.0,100,0.00,,,0.00,Wunderground v.1.15,2013-01-31 12:35:00,
2013-01-31 04:45:00,41.1,41.1,30.44,SSE,151,0.0,0.0,100,0.00,,,0.00,Wunderground v.1.15,2013-01-31 12:45:00,
2013-01-31 04:50:00,40.9,40.9,30.44,SSE,151,0.0,0.0,100,0.00,,,0.00,Wunderground v.1.15,2013-01-31 12:50:00,
2013-01-31 04:55:00,40.7,40.7,30.44,SSE,151,0.0,0.0,100,0.00,,,0.00,Wunderground v.1.15,2013-01-31 12:55:00,
2013-01-31 05:00:00,40.4,40.4,30.44,SSE,151,0.0,0.0,100,0.00,,,0.00,Wunderground v.1.15,2013-01-31 13:00:00,
2013-01-31 05:10:00,40.1,40.1,30.43,SSE,151,0.0,0.0,100,0.00,,,0.00,Wunderground v.1.15,2013-01-31 13:10:00,
2013-01-31 05:20:00,39.7,39.7,30.43,SSE,151,0.0,0.0,100,0.00,,,0.00,Wunderground v.1.15,2013-01-31 13:20:00,
2013-01-31 05:25:00,39.5,39.5,30.43,SSE,152,0.0,0.0,100,0.00,,,0.00,Wunderground v.1.15,2013-01-31 13:25:00,
2013-01-31 05:30:00,39.3,39.3,30.43,SSE,151,0.0,0.0,100,0.00,,,0.00,Wunderground v.1.15,2013-01-31 13:30:00,
2013-01-31 05:35:00,39.1,39.1,30.43,SSE,151,0.0,0.0,100,0.00,,,0.00,Wunderground v.1.15,2013-01-31 13:35:00,
2013-01-31 05:45:00,38.9,38.9,30.43,SSE,151,0.0,0.0,100,0.00,,,0.00,Wunderground v.1.15,2013-01-31 13:45:00,
2013-01-31 05:50:00,38.7,38.7,30.43,SSE,151,0.0,0.0,100,0.00,,,0.00,Wunderground v.1.15,2013-01-31 13:50:00,
2013-01-31 05:55:00,38.6,38.6,30.43,SSE,151,0.0,0.0,100,0.00,,,0.00,Wunderground v.1.15,2013-01-31 13:55:00,
2013-01-31 06:00:00,38.6,38.6,30.44,SSE,151,0.0,0.0,100,0.00,,,0.00,Wunderground v.1.15,2013-01-31 14:00:00,
2013-01-31 06:05:00,38.6,38.6,30.44,SSE,151,0.0,0.0,100,0.00,,,0.00,Wunderground v.1.15,2013-01-31 14:05:00,
2013-01-31 06:10:00,38.6,38.6,30.44,SSE,151,0.0,0.0,100,0.00,,,0.00,Wunderground v.1.15,2013-01-31 14:10:00,
2013-01-31 06:20:00,38.5,38.5,30.44,SSE,151,0.0,0.0,100,0.00,,,0.00,Wunderground v.1.15,2013-01-31 14:20:00,
2013-01-31 06:25:00,38.4,38.4,30.44,SSE,151,0.0,0.0,100,0.00,,,0.00,Wunderground v.1.15,2013-01-31 14:25:00,
2013-01-31 06:30:00,38.3,38.3,30.43,SSE,152,0.0,0.0,100,0.00,,,0.00,Wunderground v.1.15,2013-01-31 14:30:00,
2013-01-31 06:35:00,38.1,38.1,30.43,SSE,151,0.0,0.0,100,0.00,,,0.00,Wunderground v.1.15,2013-01-31 14:35:00,
2013-01-31 06:40:00,38.1,38.1,30.43,SSE,151,0.0,0.0,100,0.00,,,0.00,Wunderground v.1.15,2013-01-31 14:40:00,
2013-01-31 06:45:00,38.1,38.1,30.43,SSE,151,0.0,0.0,100,0.00,,,0.00,Wunderground v.1.15,2013-01-31 14:45:00,
2013-01-31 06:50:00,38.2,38.2,30.43,SSE,151,0.0,0.0,100,0.00,,,0.00,Wunderground v.1.15,2013-01-31 14:50:00,
2013-01-31 06:55:00,38.3,38.3,30.44,SSE,151,0.0,0.0,100,0.00,,,0.00,Wunderground v.1.15,2013-01-31 14:55:00,
2013-01-31 07:05:00,38.4,38.4,30.44,SSE,151,0.0,0.0,100,0.00,,,0.00,Wunderground v.1.15,2013-01-31 15:05:00,
2013-01-31 07:10:00,38.5,38.5,30.44,SSE,151,0.0,0.0,100,0.00,,,0.00,Wunderground v.1.15,2013-01-31 15:10:00,
2013-01-31 07:15:00,38.5,38.5,30.44,SSE,151,0.0,0.0,100,0.00,,,0.00,Wunderground v.1.15,2013-01-31 15:15:00,
2013-01-31 07:25:00,38.4,38.4,30.43,SSE,151,0.0,0.0,100,0.00,,,0.00,Wunderground v.1.15,2013-01-31 15:25:00,
2013-01-31 07:30:00,38.4,38.4,30.43,SSE,151,0.0,0.0,100,0.00,,,0.00,Wunderground v.1.15,2013-01-31 15:30:00,
2013-01-31 07:35:00,38.3,38.3,30.43,SSE,151,0.0,0.0,100,0.00,,,0.00,Wunderground v.1.15,2013-01-31 15:35:00,
2013-01-31 07:40:00,38.1,38.1,30.43,SSE,151,0.0,0.0,100,0.00,,,0.00,Wunderground v.1.15,2013-01-31 15:40:00,
2013-01-31 07:45:00,38.1,38.1,30.43,SSE,151,0.0,0.0,100,0.00,,,0.00,Wunderground v.1.15,2013-01-31 15:45:00,
2013-01-31 07:50:00,38.0,38.0,30.43,SSE,151,0.0,0.0,100,0.00,,,0.00,Wunderground v.1.15,2013-01-31 15:50:00,
2013-01-31 08:00:00,37.9,37.9,30.43,SE,136,0.0,0.0,100,0.00,,,0.00,Wunderground v.1.15,2013-01-31 16:00:00,
2013-01-31 08:05:00,37.9,37.9,30.43,SE,135,0.0,0.0,100,0.00,,,0.00,Wunderground v.1.15,2013-01-31 16:05:00,
2013-01-31 08:10:00,37.8,37.8,30.44,SE,135,0.0,0.0,100,0.00,,,0.00,Wunderground v.1.15,2013-01-31 16:10:00,
2013-01-31 08:15:00,37.7,37.7,30.43,SE,136,0.0,0.0,100,0.00,,,0.00,Wunderground v.1.15,2013-01-31 16:15:00,
2013-01-31 08:20:00,37.7,37.7,30.43,SE,135,0.0,0.0,100,0.00,,,0.00,Wunderground v.1.15,2013-01-31 16:20:00,
2013-01-31 08:30:00,37.5,37.5,30.44,SE,136,0.0,0.0,100,0.00,,,0.00,Wunderground v.1.15,2013-01-31 16:30:00,
2013-01-31 08:35:00,37.5,37.5,30.44,SE,136,0.0,0.0,100,0.00,,,0.00,Wunderground v.1.15,2013-01-31 16:35:00,
2013-01-31 08:40:00,37.5,37.5,30.43,SE,136,0.0,0.0,100,0.00,,,0.00,Wunderground v.1.15,2013-01-31 16:40:00,
2013-01-31 08:45:00,37.5,37.5,30.44,SE,136,0.0,0.0,100,0.00,,,0.00,Wunderground v.1.15,2013-01-31 16:45:00,
2013-01-31 08:50:00,37.5,37.5,30.44,SE,135,0.0,0.0,100,0.00,,,0.00,Wunderground v.1.15,2013-01-31 16:50:00,
2013-01-31 08:55:00,37.6,37.6,30.44,SE,135,0.0,0.0,100,0.00,,,0.00,Wunderground v.1.15,2013-01-31 16:55:00,
2013-01-31 09:05:00,37.8,37.8,30.43,ENE,63,0.0,0.0,100,0.00,,,0.00,Wunderground v.1.15,2013-01-31 17:05:00,
2013-01-31 09:10:00,37.9,37.9,30.42,ESE,108,0.0,0.0,100,0.00,,,0.00,Wunderground v.1.15,2013-01-31 17:10:00,
2013-01-31 09:15:00,38.2,38.2,30.42,SE,144,0.0,0.0,100,0.00,,,0.00,Wunderground v.1.15,2013-01-31 17:15:00,
2013-01-31 09:20:00,38.6,38.6,30.42,SE,144,0.0,0.0,100,0.00,,,0.00,Wunderground v.1.15,2013-01-31 17:20:00,
2013-01-31 09:25:00,39.1,39.1,30.42,ESE,121,0.0,0.0,100,0.00,,,0.00,Wunderground v.1.15,2013-01-31 17:25:00,
2013-01-31 09:30:00,39.5,39.5,30.42,ESE,121,0.0,0.0,100,0.00,,,0.00,Wunderground v.1.15,2013-01-31 17:30:00,
2013-01-31 09:40:00,40.3,40.3,30.42,ESE,121,0.0,0.0,100,0.00,,,0.00,Wunderground v.1.15,2013-01-31 17:40:00,
2013-01-31 09:45:00,40.9,40.9,30.42,ESE,112,0.0,0.0,100,0.00,,,0.00,Wunderground v.1.15,2013-01-31 17:45:00,
2013-01-31 09:50:00,41.7,41.7,30.42,ESE,112,0.0,0.0,100,0.00,,,0.00,Wunderground v.1.15,2013-01-31 17:50:00,
2013-01-31 09:55:00,42.8,42.8,30.42,ESE,112,0.0,0.0,100,0.00,,,0.00,Wunderground v.1.15,2013-01-31 17:55:00,
2013-01-31 10:00:00,43.4,43.4,30.42,SSE,150,0.0,1.0,100,0.00,,,0.00,Wunderground v.1.15,2013-01-31 18:00:00,
2013-01-31 10:10:00,45.3,45.3,30.42,SSE,147,0.0,0.0,100,0.00,,,0.00,Wunderground v.1.15,2013-01-31 18:10:00,
2013-01-31 10:15:00,46.0,46.0,30.42,SSE,150,0.0,1.0,100,0.00,,,0.00,Wunderground v.1.15,2013-01-31 18:15:00,
2013-01-31 10:20:00,46.8,46.8,30.42,ENE,58,0.0,0.0,100,0.00,,,0.00,Wunderground v.1.15,2013-01-31 18:20:00,
2013-01-31 10:25:00,46.8,46.8,30.42,SE,141,0.0,0.0,100,0.00,,,0.00,Wunderground v.1.15,2013-01-31 18:25:00,
2013-01-31 10:30:00,47.4,47.4,30.42,SSW,194,1.0,1.0,100,0.00,,,0.00,Wunderground v.1.15,2013-01-31 18:30:00,
2013-01-31 10:35:00,48.0,47.5,30.42,SSE,158,1.0,1.0,98,0.00,,,0.00,Wunderground v.1.15,2013-01-31 18:35:00,
2013-01-31 23:30:00,37.7,37.7,30.35,SE,124,0.0,0.0,100,0.00,,,0.00,Wunderground v.1.15,2013-02-01 07:30:00,
2013-01-31 23:35:00,37.7,37.7,30.35,SE,124,0.0,0.0,100,0.00,,,0.00,Wunderground v.1.15,2013-02-01 07:35:00,
2013-01-31 23:40:00,37.6,37.6,30.35,SE,124,0.0,0.0,100,0.00,,,0.00,Wunderground v.1.15,2013-02-01 07:40:00,
2013-01-31 23:45:00,37.5,37.5,30.35,SE,124,0.0,0.0,100,0.00,,,0.00,Wunderground v.1.15,2013-02-01 07:45:00,
2013-01-31 23:50:00,37.4,37.4,30.35,SE,124,0.0,0.0,100,0.00,,,0.00,Wunderground v.1.15,2013-02-01 07:50:00,
2013-01-31 23:55:00,37.3,37.3,30.35,SE,124,0.0,0.0,100,0.00,,,0.00,Wunderground v.1.15,2013-02-01 07:55:00,